Time;durP1;ratioP1;P1;durP2;ratioP2;P2;SDS_P1;SDS_P2;PMS_P1;PMS_P2;Temp;Humidity;BMP_temperature;BMP_pressure;BME280_temperature;BME280_humidity;BME280_pressure;Samples;Min_cycle;Max_cycle;Signal;HPM_P1;HPM_P2
2023/09/03 00:01:18;;;;;;;3.78;3.10;;;17.10;81.30;;;;;;5109478;28;20028;-35
2023/09/03 00:03:44;;;;;;;3.47;2.90;;;17.10;81.40;;;;;;5109506;28;20386;-31
2023/09/03 00:06:09;;;;;;;3.25;2.95;;;17.00;81.30;;;;;;5110024;28;20020;-34
2023/09/03 00:08:35;;;;;;;3.50;3.20;;;17.00;81.40;;;;;;5109503;28;20027;-35
2023/09/03 00:11:00;;;;;;;5.40;3.25;;;17.00;81.40;;;;;;5109281;28;20114;-36
2023/09/03 00:13:26;;;;;;;5.43;3.67;;;17.00;81.50;;;;;;5109512;28;20035;-35
2023/09/03 00:15:51;;;;;;;6.28;3.40;;;16.90;81.50;;;;;;5109379;28;20074;-34
2023/09/03 00:18:17;;;;;;;3.28;2.97;;;16.90;81.40;;;;;;5109380;28;20251;-33
2023/09/03 00:21:01;;;;;;;3.38;3.03;;;16.90;81.50;;;;;;5109281;28;20016;-34
2023/09/03 00:23:27;;;;;;;4.60;3.30;;;16.90;81.50;;;;;;5109356;28;20047;-34
2023/09/03 00:25:53;;;;;;;3.40;2.90;;;16.90;81.50;;;;;;5108945;28;20507;-34
2023/09/03 00:28:18;;;;;;;3.90;3.50;;;16.80;81.50;;;;;;5109733;28;20027;-34
2023/09/03 00:30:44;;;;;;;3.88;3.10;;;16.80;81.60;;;;;;5109665;28;20492;-33
2023/09/03 00:33:10;;;;;;;4.13;3.38;;;16.70;81.60;;;;;;5112687;28;20524;-34
2023/09/03 00:35:35;;;;;;;6.13;3.75;;;16.70;81.70;;;;;;5112740;28;20036;-32
2023/09/03 00:38:01;;;;;;;4.30;3.70;;;16.70;81.80;;;;;;5113053;28;20476;-34
2023/09/03 00:40:26;;;;;;;4.43;3.17;;;16.60;81.80;;;;;;5094463;28;20401;-33
2023/09/03 00:42:52;;;;;;;4.00;3.55;;;16.60;81.90;;;;;;5094516;28;20465;-35
2023/09/03 00:45:17;;;;;;;4.35;3.45;;;16.60;82.00;;;;;;5112772;28;20024;-34
2023/09/03 00:47:44;;;;;;;3.40;3.03;;;16.60;82.00;;;;;;5112687;28;20099;-34
2023/09/03 00:50:10;;;;;;;3.88;3.47;;;16.60;82.10;;;;;;5112849;28;20020;-35
2023/09/03 00:52:36;;;;;;;3.67;3.38;;;16.60;82.10;;;;;;5112568;28;20038;-35
2023/09/03 00:55:02;;;;;;;4.22;3.33;;;16.50;82.20;;;;;;5112796;28;20119;-35
2023/09/03 00:57:28;;;;;;;3.53;3.22;;;16.50;82.30;;;;;;5112453;28;20103;-35
2023/09/03 00:59:56;;;;;;;3.90;3.50;;;16.60;82.40;;;;;;5112509;28;20077;-32
2023/09/03 01:02:23;;;;;;;3.92;3.33;;;16.60;82.40;;;;;;5112367;28;20500;-35
2023/09/03 01:04:49;;;;;;;5.75;3.10;;;16.50;82.50;;;;;;5112431;28;20302;-34
2023/09/03 01:07:16;;;;;;;4.40;3.45;;;16.50;82.50;;;;;;5112555;28;20476;-34
2023/09/03 01:09:42;;;;;;;3.40;3.05;;;16.50;82.50;;;;;;5112306;28;20324;-33
2023/09/03 01:12:27;;;;;;;4.00;3.33;;;16.50;82.60;;;;;;5112334;28;20111;-35
2023/09/03 01:15:13;;;;;;;4.25;3.58;;;16.50;82.70;;;;;;5112037;28;20028;-34
2023/09/03 01:17:58;;;;;;;4.70;3.75;;;16.40;82.80;;;;;;5112053;28;20027;-35
2023/09/03 01:20:32;;;;;;;6.00;3.63;;;16.40;82.90;;;;;;5111998;28;20392;-35
2023/09/03 01:23:14;;;;;;;3.97;3.53;;;16.40;83.10;;;;;;5112753;28;20423;-34
2023/09/03 01:26:10;;;;;;;4.28;3.72;;;16.40;83.20;;;;;;5111939;28;20027;-35
2023/09/03 01:28:38;;;;;;;5.68;3.78;;;16.30;83.20;;;;;;5111914;28;20039;-34
2023/09/03 01:31:09;;;;;;;5.82;3.72;;;16.30;83.40;;;;;;5111887;28;20024;-35
2023/09/03 01:33:38;;;;;;;4.63;3.53;;;16.30;83.40;;;;;;5111914;28;20047;-33
2023/09/03 01:36:06;;;;;;;5.25;3.70;;;16.30;83.50;;;;;;5111783;28;20063;-34
2023/09/03 01:38:32;;;;;;;4.70;3.55;;;16.30;83.60;;;;;;5112123;28;20358;-34
2023/09/03 01:40:59;;;;;;;5.45;3.80;;;16.30;83.70;;;;;;5111681;28;20020;-35
2023/09/03 01:43:25;;;;;;;4.38;3.90;;;16.30;83.80;;;;;;5111846;28;20012;-35
2023/09/03 01:46:21;;;;;;;5.28;4.13;;;16.30;83.80;;;;;;5111777;28;20092;-35
2023/09/03 01:49:08;;;;;;;4.13;3.70;;;16.30;83.90;;;;;;5111724;28;20059;-35
2023/09/03 01:51:52;;;;;;;4.38;3.97;;;16.30;84.00;;;;;;5111736;28;20020;-35
2023/09/03 01:54:26;;;;;;;4.95;4.03;;;16.20;83.90;;;;;;5111380;28;20034;-33
2023/09/03 01:56:57;;;;;;;5.85;4.45;;;16.30;84.00;;;;;;5111317;28;20030;-35
2023/09/03 01:59:29;;;;;;;6.75;4.22;;;16.30;84.00;;;;;;5111536;28;20027;-36
2023/09/03 02:01:56;;;;;;;4.15;3.75;;;16.30;84.10;;;;;;5111374;28;20024;-41
2023/09/03 02:04:22;;;;;;;6.70;4.70;;;16.20;84.10;;;;;;5111296;28;20020;-35
2023/09/03 02:06:47;;;;;;;4.80;4.07;;;16.30;84.10;;;;;;5111166;28;20020;-35
2023/09/03 02:09:13;;;;;;;5.20;4.43;;;16.30;84.20;;;;;;5111170;28;20019;-35
2023/09/03 02:11:39;;;;;;;6.28;4.32;;;16.30;84.20;;;;;;5111140;28;20024;-35
2023/09/03 02:14:05;;;;;;;6.50;4.40;;;16.30;84.20;;;;;;5111116;28;20111;-34
2023/09/03 02:16:30;;;;;;;4.78;4.10;;;16.30;84.30;;;;;;5111211;28;20091;-33
2023/09/03 02:18:56;;;;;;;4.85;4.28;;;16.30;84.30;;;;;;5110866;28;20114;-35
2023/09/03 02:21:21;;;;;;;5.32;4.38;;;16.30;84.40;;;;;;5110913;28;20019;-35
2023/09/03 02:23:47;;;;;;;4.68;4.15;;;16.30;84.40;;;;;;5110785;28;20023;-35
2023/09/03 02:26:13;;;;;;;5.30;4.20;;;16.20;84.40;;;;;;5110623;28;20123;-34
2023/09/03 02:28:39;;;;;;;6.05;4.75;;;16.30;84.40;;;;;;5110827;28;20022;-35
2023/09/03 02:31:05;;;;;;;7.78;4.70;;;16.30;84.40;;;;;;5110646;28;20094;-33
2023/09/03 02:33:30;;;;;;;5.93;5.32;;;16.30;84.40;;;;;;5110533;28;20023;-34
2023/09/03 02:35:56;;;;;;;8.20;5.90;;;16.30;84.50;;;;;;5110570;28;20099;-33
2023/09/03 02:38:22;;;;;;;5.90;5.03;;;16.30;84.50;;;;;;5110560;28;20028;-33
2023/09/03 02:40:47;;;;;;;6.85;5.40;;;16.30;84.40;;;;;;5092359;28;20012;-35
2023/09/03 02:43:14;;;;;;;6.47;5.57;;;16.30;84.50;;;;;;5110666;28;20016;-35
2023/09/03 02:45:40;;;;;;;7.72;5.40;;;16.30;84.50;;;;;;5110527;28;20312;-33
2023/09/03 02:48:07;;;;;;;7.72;5.50;;;16.30;84.50;;;;;;5110388;28;20038;-34
2023/09/03 02:50:35;;;;;;;6.95;5.75;;;16.30;84.50;;;;;;5110561;28;20480;-35
2023/09/03 02:53:02;;;;;;;7.07;5.47;;;16.30;84.60;;;;;;5110387;28;20273;-35
2023/09/03 02:55:29;;;;;;;6.30;5.40;;;16.30;84.50;;;;;;5109509;28;20106;-35
2023/09/03 02:57:54;;;;;;;7.82;5.63;;;16.30;84.60;;;;;;5109986;28;20110;-35
2023/09/03 03:00:20;;;;;;;5.43;4.93;;;16.20;84.60;;;;;;5110130;28;20055;-34
2023/09/03 03:02:45;;;;;;;6.45;5.32;;;16.20;84.60;;;;;;5110058;28;20047;-35
2023/09/03 03:05:11;;;;;;;6.80;5.50;;;16.20;84.60;;;;;;5110158;28;20026;-35
2023/09/03 03:07:38;;;;;;;6.25;5.65;;;16.20;84.60;;;;;;5110408;28;20015;-32
2023/09/03 03:10:04;;;;;;;5.88;5.28;;;16.20;84.60;;;;;;5110057;28;20023;-34
2023/09/03 03:12:29;;;;;;;5.63;5.13;;;16.10;84.60;;;;;;5109997;28;20023;-34
2023/09/03 03:14:55;;;;;;;5.90;4.97;;;16.10;84.70;;;;;;5109787;28;20050;-34
2023/09/03 03:17:20;;;;;;;6.13;5.53;;;16.10;84.70;;;;;;5109865;28;20550;-34
2023/09/03 03:19:50;;;;;;;6.63;5.85;;;16.10;84.80;;;;;;5109765;28;20027;-35
2023/09/03 03:22:16;;;;;;;6.63;5.50;;;16.10;84.90;;;;;;5091767;28;20104;-33
2023/09/03 03:24:41;;;;;;;6.75;5.22;;;16.10;84.80;;;;;;5109764;28;20016;-35
2023/09/03 03:27:08;;;;;;;5.82;5.07;;;16.00;84.80;;;;;;5109922;28;20036;-35
2023/09/03 03:29:33;;;;;;;5.20;4.70;;;16.00;84.90;;;;;;5109722;28;20030;-35
2023/09/03 03:31:59;;;;;;;5.03;4.53;;;15.90;84.90;;;;;;5109750;28;20027;-34
2023/09/03 03:34:27;;;;;;;5.53;4.65;;;15.90;85.10;;;;;;5109972;28;20576;-34
2023/09/03 03:36:53;;;;;;;5.13;4.50;;;15.80;85.10;;;;;;5110080;28;20110;-35
2023/09/03 03:39:20;;;;;;;5.65;4.65;;;15.80;85.30;;;;;;5109457;28;20564;-34
2023/09/03 03:41:45;;;;;;;5.22;4.72;;;15.70;85.30;;;;;;5109907;28;20251;-33
2023/09/03 03:44:11;;;;;;;5.05;4.55;;;15.70;85.40;;;;;;5109739;28;20062;-35
2023/09/03 03:46:37;;;;;;;5.63;4.53;;;15.70;85.40;;;;;;5109655;28;20031;-34
2023/09/03 03:49:03;;;;;;;6.70;4.90;;;15.70;85.40;;;;;;5109736;28;20027;-34
2023/09/03 03:51:29;;;;;;;5.00;4.47;;;15.60;85.40;;;;;;5109639;28;20032;-35
2023/09/03 03:53:55;;;;;;;4.90;4.30;;;15.60;85.40;;;;;;5109498;28;20023;-35
2023/09/03 03:56:21;;;;;;;4.78;4.32;;;15.60;85.30;;;;;;5109449;28;20047;-35
2023/09/03 03:58:47;;;;;;;5.25;4.13;;;15.60;85.40;;;;;;5109345;28;20128;-33
2023/09/03 04:01:15;;;;;;;6.90;4.75;;;15.50;85.40;;;;;;5109915;28;20510;-34
2023/09/03 04:03:41;;;;;;;5.43;4.50;;;15.50;85.50;;;;;;5109629;28;20016;-35
2023/09/03 04:06:07;;;;;;;7.72;4.38;;;15.40;85.60;;;;;;5109127;28;20028;-34
2023/09/03 04:08:34;;;;;;;5.15;4.15;;;15.40;85.70;;;;;;5113554;28;20028;-34
2023/09/03 04:11:10;;;;;;;4.75;4.07;;;15.40;85.80;;;;;;5113465;28;20084;-34
2023/09/03 04:13:37;;;;;;;6.25;4.43;;;15.40;85.90;;;;;;5113501;28;20073;-35
2023/09/03 04:16:10;;;;;;;4.80;4.30;;;15.40;85.90;;;;;;5113566;28;20374;-35
2023/09/03 04:18:36;;;;;;;6.82;4.32;;;15.40;85.90;;;;;;5113343;28;20545;-35
2023/09/03 04:21:02;;;;;;;5.47;4.25;;;15.40;85.90;;;;;;5113572;28;20104;-35
2023/09/03 04:23:28;;;;;;;5.25;4.43;;;15.40;85.90;;;;;;5113181;28;20073;-35
2023/09/03 04:25:56;;;;;;;6.13;4.80;;;15.40;85.90;;;;;;5112957;28;20035;-34
2023/09/03 04:28:22;;;;;;;5.93;4.40;;;15.40;85.80;;;;;;5113001;28;20388;-35
2023/09/03 04:30:56;;;;;;;4.95;4.45;;;15.50;85.80;;;;;;5113099;28;20116;-34
2023/09/03 04:33:22;;;;;;;4.88;4.38;;;15.50;85.80;;;;;;5113028;28;20548;-35
2023/09/03 04:35:53;;;;;;;5.13;4.55;;;15.50;85.70;;;;;;5112935;28;20435;-35
2023/09/03 04:38:18;;;;;;;6.03;4.88;;;15.50;85.70;;;;;;5112794;28;20027;-35
2023/09/03 04:40:44;;;;;;;5.90;4.72;;;15.50;85.70;;;;;;5112831;28;20020;-35
2023/09/03 04:43:10;;;;;;;5.85;4.70;;;15.50;85.70;;;;;;5113083;28;20020;-35
2023/09/03 04:45:35;;;;;;;6.53;4.85;;;15.50;85.70;;;;;;5112862;28;20098;-36
2023/09/03 04:48:01;;;;;;;6.85;5.28;;;15.50;85.70;;;;;;5112716;28;20492;-35
2023/09/03 04:50:26;;;;;;;7.00;5.00;;;15.50;85.60;;;;;;5113166;28;20038;-35
2023/09/03 04:52:55;;;;;;;6.78;5.10;;;15.50;85.60;;;;;;5094199;28;20020;-34
2023/09/03 04:55:21;;;;;;;5.35;4.85;;;15.60;85.60;;;;;;5112693;28;20388;-35
2023/09/03 04:57:46;;;;;;;8.40;5.95;;;15.60;85.60;;;;;;5112637;28;20051;-34
2023/09/03 05:00:12;;;;;;;7.57;5.50;;;15.60;85.60;;;;;;5112663;28;20467;-32
2023/09/03 05:02:38;;;;;;;5.78;5.07;;;15.60;85.50;;;;;;5112456;28;20047;-34
2023/09/03 05:05:04;;;;;;;6.45;5.63;;;15.60;85.50;;;;;;5112586;28;20028;-34
2023/09/03 05:07:29;;;;;;;8.38;5.55;;;15.60;85.50;;;;;;5112357;28;20031;-32
2023/09/03 05:09:55;;;;;;;8.02;5.53;;;15.60;85.50;;;;;;5112364;28;20030;-32
2023/09/03 05:12:22;;;;;;;6.70;5.50;;;15.60;85.50;;;;;;5112171;28;20027;-36
2023/09/03 05:14:48;;;;;;;6.13;5.35;;;15.60;85.60;;;;;;5112196;28;20466;-34
2023/09/03 05:17:14;;;;;;;6.75;5.85;;;15.60;85.60;;;;;;5112028;28;20043;-34
2023/09/03 05:19:40;;;;;;;6.93;5.68;;;15.60;85.60;;;;;;5110816;28;20119;-35
2023/09/03 05:22:05;;;;;;;6.97;5.53;;;15.60;85.70;;;;;;5093804;28;20084;-34
2023/09/03 05:24:31;;;;;;;7.78;5.90;;;15.70;85.70;;;;;;5112008;28;20094;-34
2023/09/03 05:26:57;;;;;;;6.28;5.68;;;15.60;85.60;;;;;;5111899;28;20044;-33
2023/09/03 05:29:22;;;;;;;6.80;5.95;;;15.70;85.70;;;;;;5111839;28;20114;-32
2023/09/03 05:31:48;;;;;;;6.70;6.00;;;15.70;85.60;;;;;;5111878;28;20081;-34
2023/09/03 05:34:14;;;;;;;7.15;6.32;;;15.70;85.60;;;;;;5111875;28;20028;-34
2023/09/03 05:36:39;;;;;;;8.88;6.85;;;15.70;85.70;;;;;;5111953;28;20030;-31
2023/09/03 05:39:05;;;;;;;9.00;6.35;;;15.70;85.70;;;;;;5111817;28;20087;-43
2023/09/03 05:41:31;;;;;;;6.30;5.70;;;15.80;85.70;;;;;;5093246;28;20453;-35
2023/09/03 05:44:06;;;;;;;6.82;5.90;;;15.80;85.70;;;;;;5112016;28;20016;-34
2023/09/03 05:46:31;;;;;;;6.40;5.70;;;15.90;85.70;;;;;;5093208;28;20042;-33
2023/09/03 05:48:57;;;;;;;7.60;5.57;;;15.90;85.60;;;;;;5111615;28;20055;-34
2023/09/03 05:51:23;;;;;;;7.88;5.90;;;15.90;85.50;;;;;;5111413;28;20522;-34
2023/09/03 05:53:48;;;;;;;7.97;5.88;;;16.00;85.50;;;;;;5111575;28;20104;-33
2023/09/03 05:56:14;;;;;;;7.65;5.95;;;16.00;85.40;;;;;;5111481;28;20472;-35
2023/09/03 05:58:40;;;;;;;6.90;6.20;;;16.10;85.40;;;;;;5111265;28;20028;-35
2023/09/03 06:01:07;;;;;;;7.57;6.40;;;16.10;85.30;;;;;;5111461;28;20031;-34
2023/09/03 06:03:33;;;;;;;6.80;6.10;;;16.10;85.20;;;;;;5110940;28;20012;-33
2023/09/03 06:06:10;;;;;;;7.88;6.20;;;16.20;85.20;;;;;;5110909;28;20027;-34
2023/09/03 06:08:36;;;;;;;7.22;6.07;;;16.20;85.10;;;;;;5111106;28;20479;-34
2023/09/03 06:11:03;;;;;;;6.75;5.53;;;16.30;85.10;;;;;;5110929;28;20019;-33
2023/09/03 06:13:30;;;;;;;7.85;6.72;;;16.30;85.10;;;;;;5111125;28;20517;-35
2023/09/03 06:15:56;;;;;;;8.80;6.63;;;16.40;85.10;;;;;;5092822;28;20042;-32
2023/09/03 06:18:23;;;;;;;9.07;6.50;;;16.40;85.00;;;;;;5111114;28;20475;-35
2023/09/03 06:20:49;;;;;;;8.13;6.63;;;16.50;85.00;;;;;;5092796;28;20156;-35
2023/09/03 06:23:18;;;;;;;7.10;6.30;;;16.50;85.10;;;;;;5111060;28;20028;-33
2023/09/03 06:25:45;;;;;;;8.15;6.57;;;16.50;85.00;;;;;;5110782;28;20030;-34
2023/09/03 06:28:11;;;;;;;8.40;6.05;;;16.60;85.00;;;;;;5110758;28;20035;-34
2023/09/03 06:30:36;;;;;;;7.30;6.35;;;16.60;84.90;;;;;;5111115;28;20069;-34
2023/09/03 06:33:02;;;;;;;8.07;5.57;;;16.70;84.90;;;;;;5110806;28;20123;-34
2023/09/03 06:35:28;;;;;;;6.32;5.63;;;16.80;84.80;;;;;;5110662;28;20020;-34
2023/09/03 06:37:55;;;;;;;7.70;5.45;;;16.90;84.70;;;;;;5110503;28;20076;-35
2023/09/03 06:40:21;;;;;;;6.30;5.55;;;17.00;84.60;;;;;;5110844;28;20020;-33
2023/09/03 06:42:47;;;;;;;6.18;5.57;;;17.00;84.50;;;;;;5110915;28;20281;-34
2023/09/03 06:45:13;;;;;;;6.90;5.30;;;17.10;84.40;;;;;;5110583;28;20052;-34
2023/09/03 06:47:38;;;;;;;6.05;4.97;;;17.10;84.30;;;;;;5092139;28;20027;-32
2023/09/03 06:50:08;;;;;;;8.43;4.82;;;17.20;84.20;;;;;;5110384;28;20043;-34
2023/09/03 06:52:36;;;;;;;5.50;4.72;;;17.30;84.10;;;;;;5110474;28;20032;-33
2023/09/03 06:55:02;;;;;;;5.40;4.40;;;17.40;84.10;;;;;;5110376;28;20024;-34
2023/09/03 06:57:28;;;;;;;6.47;4.55;;;17.40;84.00;;;;;;5110488;28;20121;-34
2023/09/03 06:59:54;;;;;;;7.22;4.28;;;17.50;83.90;;;;;;5110358;28;20048;-35
2023/09/03 07:02:20;;;;;;;5.55;4.45;;;17.50;83.90;;;;;;5110398;28;20023;-34
2023/09/03 07:04:46;;;;;;;6.75;4.05;;;17.60;83.80;;;;;;5110570;28;20023;-36
2023/09/03 07:07:11;;;;;;;5.47;4.00;;;17.70;83.70;;;;;;5110170;28;20491;-35
2023/09/03 07:09:37;;;;;;;5.88;4.63;;;17.70;83.60;;;;;;5110231;28;20097;-35
2023/09/03 07:12:03;;;;;;;4.97;4.47;;;17.80;83.60;;;;;;5110178;28;20081;-34
2023/09/03 07:14:33;;;;;;;5.68;4.70;;;17.80;83.50;;;;;;5110208;28;20027;-35
2023/09/03 07:17:03;;;;;;;5.80;4.55;;;17.90;83.40;;;;;;5110383;28;20034;-35
2023/09/03 07:19:29;;;;;;;6.22;4.45;;;17.90;83.30;;;;;;5091480;28;20077;-32
2023/09/03 07:21:55;;;;;;;7.85;4.50;;;18.00;83.30;;;;;;5110221;28;20028;-36
2023/09/03 07:24:21;;;;;;;5.93;4.50;;;18.10;83.20;;;;;;5109831;28;20458;-35
2023/09/03 07:26:46;;;;;;;6.38;4.30;;;18.10;83.10;;;;;;5109814;28;20412;-35
2023/09/03 07:29:15;;;;;;;5.00;4.03;;;18.10;83.10;;;;;;5109820;28;20339;-34
2023/09/03 07:31:43;;;;;;;5.78;4.13;;;18.10;83.10;;;;;;5109928;28;20023;-35
2023/09/03 07:34:09;;;;;;;4.95;4.10;;;18.20;83.10;;;;;;5110108;28;20258;-34
2023/09/03 07:36:35;;;;;;;4.95;3.92;;;18.20;83.00;;;;;;5109756;28;20080;-34
2023/09/03 07:39:01;;;;;;;4.82;4.20;;;18.20;83.00;;;;;;5110049;28;20023;-35
2023/09/03 07:41:26;;;;;;;5.20;4.70;;;18.30;82.90;;;;;;5109308;28;20016;-34
2023/09/03 07:43:52;;;;;;;5.28;4.22;;;18.30;82.80;;;;;;5109824;28;20020;-34
2023/09/03 07:46:18;;;;;;;5.75;4.20;;;18.40;82.70;;;;;;5109467;28;20480;-34
2023/09/03 07:48:44;;;;;;;4.55;4.10;;;18.40;82.60;;;;;;5109513;28;20027;-35
2023/09/03 07:51:09;;;;;;;5.28;3.78;;;18.40;82.60;;;;;;5109667;28;20032;-35
2023/09/03 07:53:35;;;;;;;6.15;4.22;;;18.50;82.70;;;;;;5109497;28;20024;-34
2023/09/03 07:56:00;;;;;;;4.85;3.97;;;18.50;82.60;;;;;;5109950;28;20047;-35
2023/09/03 07:58:26;;;;;;;4.65;4.05;;;18.50;82.50;;;;;;5109236;28;20020;-34
2023/09/03 08:00:53;;;;;;;5.18;3.72;;;18.60;82.50;;;;;;5109743;28;20034;-32
2023/09/03 08:03:18;;;;;;;4.30;3.90;;;18.60;82.40;;;;;;5109781;28;20094;-34
2023/09/03 08:05:44;;;;;;;5.93;4.25;;;18.60;82.30;;;;;;5109845;28;20095;-34
2023/09/03 08:08:09;;;;;;;6.60;3.80;;;18.70;82.30;;;;;;5109403;28;20020;-32
2023/09/03 08:10:35;;;;;;;5.45;4.10;;;18.80;82.30;;;;;;5109301;28;20011;-34
2023/09/03 08:13:01;;;;;;;4.10;3.70;;;18.80;82.20;;;;;;5090924;28;20046;-34
2023/09/03 08:15:26;;;;;;;5.80;4.10;;;18.70;82.00;;;;;;5109391;28;20024;-33
2023/09/03 08:17:52;;;;;;;3.97;3.58;;;18.80;82.00;;;;;;5109646;28;20107;-34
2023/09/03 08:20:17;;;;;;;3.67;3.15;;;18.80;81.90;;;;;;5109219;28;20027;-34
2023/09/03 08:22:43;;;;;;;4.97;3.20;;;18.90;81.80;;;;;;5109625;28;20048;-34
2023/09/03 08:25:08;;;;;;;6.05;3.20;;;19.00;81.70;;;;;;5109705;28;20020;-34
2023/09/03 08:27:34;;;;;;;4.22;3.10;;;19.00;81.50;;;;;;5109211;28;20424;-32
2023/09/03 08:30:00;;;;;;;4.95;3.25;;;19.00;81.30;;;;;;5109412;28;20024;-32
2023/09/03 08:32:28;;;;;;;3.25;2.92;;;19.10;81.10;;;;;;5109359;28;20043;-32
2023/09/03 08:34:54;;;;;;;3.97;3.38;;;19.20;81.00;;;;;;5109311;28;20031;-32
2023/09/03 08:37:19;;;;;;;3.08;2.63;;;19.20;80.80;;;;;;5109409;28;20096;-35
2023/09/03 08:39:45;;;;;;;5.10;3.75;;;19.30;80.70;;;;;;5109261;28;20020;-35
2023/09/03 08:42:14;;;;;;;3.65;3.35;;;19.40;80.50;;;;;;5109288;28;20070;-34
2023/09/03 08:44:46;;;;;;;3.88;3.53;;;19.40;80.20;;;;;;5109105;28;20016;-34
2023/09/03 08:47:15;;;;;;;5.43;4.63;;;19.50;80.10;;;;;;5090675;28;20084;-35
2023/09/03 08:49:40;;;;;;;5.60;4.90;;;19.50;79.90;;;;;;5090734;28;20023;-34
2023/09/03 08:52:07;;;;;;;6.88;4.40;;;19.60;79.80;;;;;;5109074;28;20480;-35
2023/09/03 08:54:33;;;;;;;6.72;4.97;;;19.60;79.70;;;;;;5110977;28;20024;-33
2023/09/03 08:56:59;;;;;;;5.90;4.63;;;19.60;79.50;;;;;;5112802;28;20035;-34
2023/09/03 08:59:24;;;;;;;6.28;4.50;;;19.70;79.50;;;;;;5112378;28;20020;-33
2023/09/03 09:01:54;;;;;;;4.55;4.15;;;19.80;79.40;;;;;;5112613;28;20107;-34
2023/09/03 09:04:21;;;;;;;5.40;3.97;;;19.80;79.20;;;;;;5112523;28;20030;-34
2023/09/03 09:06:48;;;;;;;5.78;4.20;;;19.90;79.00;;;;;;5112413;28;20022;-34
2023/09/03 09:09:15;;;;;;;4.10;3.40;;;20.00;79.00;;;;;;5112067;28;20393;-32
2023/09/03 09:11:45;;;;;;;5.38;4.20;;;20.00;78.70;;;;;;5112585;28;20477;-34
2023/09/03 09:14:24;;;;;;;4.88;3.58;;;20.10;78.40;;;;;;5112334;28;20061;-33
2023/09/03 09:16:50;;;;;;;3.65;3.35;;;20.10;77.90;;;;;;5112326;28;20023;-34
2023/09/03 09:19:16;;;;;;;5.70;4.63;;;20.10;77.90;;;;;;5112310;28;20097;-34
2023/09/03 09:21:42;;;;;;;4.25;3.53;;;20.10;77.80;;;;;;5112224;28;20115;-32
2023/09/03 09:24:08;;;;;;;3.30;2.88;;;20.10;77.80;;;;;;5112130;28;20055;-35
2023/09/03 09:26:33;;;;;;;2.90;2.60;;;20.10;77.70;;;;;;5111915;28;20052;-34
2023/09/03 09:29:01;;;;;;;2.95;2.70;;;20.20;77.50;;;;;;5111962;28;20019;-33
2023/09/03 09:31:31;;;;;;;3.80;2.63;;;20.20;77.10;;;;;;5111951;28;20027;-35
2023/09/03 09:33:59;;;;;;;3.65;2.97;;;20.30;76.90;;;;;;5111920;28;20028;-35
2023/09/03 09:36:25;;;;;;;5.35;3.53;;;20.30;76.70;;;;;;5111932;28;20431;-35
2023/09/03 09:38:51;;;;;;;4.47;3.92;;;20.40;76.60;;;;;;5111770;28;20019;-34
2023/09/03 09:41:23;;;;;;;3.65;3.35;;;20.50;76.60;;;;;;5111814;28;20481;-34
2023/09/03 09:43:49;;;;;;;3.72;2.90;;;20.50;76.40;;;;;;5112026;28;20107;-35
2023/09/03 09:46:29;;;;;;;3.10;2.80;;;20.60;76.30;;;;;;5112044;28;20102;-35
2023/09/03 09:48:59;;;;;;;3.60;2.70;;;20.60;75.80;;;;;;5111635;28;20023;-34
2023/09/03 09:51:27;;;;;;;4.35;2.90;;;20.70;75.60;;;;;;5111460;28;20028;-34
2023/09/03 09:54:03;;;;;;;2.58;2.38;;;20.80;75.30;;;;;;5111474;28;20236;-34
2023/09/03 09:56:31;;;;;;;3.88;2.92;;;20.90;75.00;;;;;;5111489;28;20028;-35
2023/09/03 09:58:58;;;;;;;3.70;3.33;;;20.90;74.80;;;;;;5111342;28;20034;-33
2023/09/03 10:01:26;;;;;;;4.72;3.40;;;21.00;74.60;;;;;;5111184;28;20432;-34
2023/09/03 10:03:51;;;;;;;3.33;3.03;;;21.00;75.00;;;;;;5111032;28;20052;-34
2023/09/03 10:06:20;;;;;;;4.40;3.47;;;21.00;74.20;;;;;;5110613;28;20424;-36
2023/09/03 10:08:48;;;;;;;4.13;3.60;;;21.10;74.00;;;;;;5111032;28;20082;-34
2023/09/03 10:11:14;;;;;;;3.50;3.20;;;21.20;73.60;;;;;;5110667;28;20028;-35
2023/09/03 10:13:41;;;;;;;4.20;3.80;;;21.20;73.20;;;;;;5110855;28;20053;-34
2023/09/03 10:16:07;;;;;;;3.00;2.70;;;21.30;73.10;;;;;;5111043;28;20388;-32
2023/09/03 10:18:39;;;;;;;4.28;2.70;;;21.30;73.00;;;;;;5111181;28;20098;-35
2023/09/03 10:21:10;;;;;;;3.17;2.55;;;21.30;72.70;;;;;;5111295;28;20173;-35
2023/09/03 10:23:58;;;;;;;2.60;2.40;;;21.30;72.40;;;;;;5110932;28;20020;-31
2023/09/03 10:26:28;;;;;;;2.40;2.20;;;21.40;72.30;;;;;;5092428;28;20047;-33
2023/09/03 10:29:00;;;;;;;2.33;2.00;;;21.40;72.30;;;;;;5110878;28;20323;-35
2023/09/03 10:31:26;;;;;;;2.30;2.10;;;21.50;72.10;;;;;;5110714;28;20027;-36
2023/09/03 10:33:52;;;;;;;2.05;1.80;;;21.60;71.60;;;;;;5110637;28;20430;-33
2023/09/03 10:36:19;;;;;;;2.33;1.75;;;21.60;71.40;;;;;;5110871;28;20094;-34
2023/09/03 10:38:46;;;;;;;2.08;1.70;;;21.60;71.30;;;;;;5110611;28;20460;-35
2023/09/03 10:41:23;;;;;;;2.47;1.95;;;21.70;71.00;;;;;;5110572;28;20095;-33
2023/09/03 10:43:54;;;;;;;1.70;1.60;;;21.70;70.40;;;;;;5110475;28;20027;-34
2023/09/03 10:46:25;;;;;;;2.83;1.70;;;21.80;70.00;;;;;;5110407;28;20016;-34
2023/09/03 10:48:55;;;;;;;2.45;1.85;;;21.80;69.80;;;;;;5110384;28;20585;-34
2023/09/03 10:51:35;;;;;;;2.08;1.88;;;21.80;69.60;;;;;;5110296;28;20078;-34
2023/09/03 10:54:18;;;;;;;2.00;1.50;;;21.90;69.30;;;;;;5110354;28;20026;-34
2023/09/03 10:57:02;;;;;;;;;;;22.00;69.20;;;;;;5110651;28;20107;-35
2023/09/03 10:59:48;;;;;;;;;;;22.10;69.50;;;;;;5110450;28;19915;-32
2023/09/03 11:02:27;;;;;;;1.77;1.40;;;22.20;69.60;;;;;;5109909;28;19943;-33
2023/09/03 11:05:12;;;;;;;2.50;1.80;;;22.20;69.20;;;;;;5109840;28;20028;-35
2023/09/03 11:07:37;;;;;;;1.88;1.73;;;22.20;68.60;;;;;;5110173;28;20098;-33
2023/09/03 11:10:35;;;;;;;1.55;1.45;;;22.30;68.60;;;;;;5109954;28;20103;-34
2023/09/03 11:13:04;;;;;;;2.05;1.92;;;22.30;68.30;;;;;;5064574;28;20492;-34
2023/09/03 11:15:30;;;;;;;1.88;1.67;;;22.40;68.40;;;;;;5109930;28;20024;-34
2023/09/03 11:17:56;;;;;;;2.13;1.52;;;22.40;68.10;;;;;;5109182;28;20036;-36
2023/09/03 11:20:35;;;;;;;1.77;1.48;;;22.50;68.00;;;;;;5109707;28;20024;-31
2023/09/03 11:23:02;;;;;;;1.50;1.33;;;22.50;67.60;;;;;;5110187;28;20524;-34
2023/09/03 11:25:40;;;;;;;1.17;1.08;;;22.60;67.60;;;;;;5110093;28;20027;-34
2023/09/03 11:28:13;;;;;;;1.40;1.10;;;22.70;67.30;;;;;;5109974;28;20122;-34
2023/09/03 11:30:44;;;;;;;2.17;1.00;;;22.80;67.30;;;;;;5109996;28;20027;-35
2023/09/03 11:33:28;;;;;;;1.20;1.05;;;22.90;67.00;;;;;;5109761;28;20062;-34
2023/09/03 11:35:54;;;;;;;1.20;1.10;;;22.90;66.70;;;;;;5109906;28;20027;-35
2023/09/03 11:38:25;;;;;;;1.55;1.00;;;23.00;66.40;;;;;;5109877;28;20034;-36
2023/09/03 11:40:56;;;;;;;2.28;1.10;;;23.00;65.70;;;;;;5109609;28;20473;-32
2023/09/03 11:43:23;;;;;;;1.20;1.10;;;23.00;65.40;;;;;;5109490;28;20116;-35
2023/09/03 11:45:49;;;;;;;1.38;0.90;;;23.00;64.50;;;;;;5109782;28;20052;-34
2023/09/03 11:48:15;;;;;;;0.85;0.85;;;23.00;63.40;;;;;;5109704;28;20058;-36
2023/09/03 11:50:40;;;;;;;0.95;0.70;;;23.00;63.30;;;;;;5109968;28;20077;-35
2023/09/03 11:53:08;;;;;;;1.00;0.88;;;23.10;62.90;;;;;;5109927;28;20028;-33
2023/09/03 11:55:42;;;;;;;1.00;1.00;;;23.10;62.90;;;;;;5109857;28;20114;-35
2023/09/03 11:58:10;;;;;;;0.82;0.82;;;23.20;62.60;;;;;;5109701;28;20035;-36
2023/09/03 12:00:37;;;;;;;1.05;0.70;;;23.30;62.50;;;;;;5109823;28;20110;-43
2023/09/03 12:03:03;;;;;;;0.82;0.73;;;23.40;62.00;;;;;;5109667;28;20016;-33
2023/09/03 12:05:31;;;;;;;1.42;1.08;;;23.40;61.70;;;;;;5109820;28;20039;-34
2023/09/03 12:08:04;;;;;;;0.60;0.60;;;23.60;61.70;;;;;;5109718;28;20546;-35
2023/09/03 12:10:31;;;;;;;0.80;0.80;;;23.70;61.40;;;;;;5109698;28;20212;-35
2023/09/03 12:12:59;;;;;;;1.13;0.90;;;23.80;61.00;;;;;;5109559;28;20047;-31
2023/09/03 12:15:26;;;;;;;0.52;0.50;;;23.90;60.40;;;;;;5110185;28;20028;-33
2023/09/03 12:17:52;;;;;;;0.82;0.70;;;23.90;60.00;;;;;;5109729;28;20027;-35
2023/09/03 12:20:35;;;;;;;0.55;0.55;;;23.80;59.60;;;;;;5109385;28;20024;-35
2023/09/03 12:23:14;;;;;;;0.82;0.80;;;23.90;59.40;;;;;;5109779;28;20055;-35
2023/09/03 12:25:41;;;;;;;0.80;0.80;;;23.80;59.30;;;;;;5109489;28;20450;-33
2023/09/03 12:28:08;;;;;;;1.08;0.93;;;23.90;59.30;;;;;;5110583;28;20492;-34
2023/09/03 12:30:58;;;;;;;0.98;0.80;;;23.90;59.30;;;;;;5113274;28;20031;-35
2023/09/03 12:33:26;;;;;;;1.00;0.88;;;23.90;59.10;;;;;;5113210;28;20020;-34
2023/09/03 12:36:08;;;;;;;0.77;0.70;;;23.90;59.00;;;;;;5113465;28;20026;-37
2023/09/03 12:39:00;;;;;;;1.07;0.80;;;23.90;58.70;;;;;;5113521;28;20023;-34
2023/09/03 12:41:39;;;;;;;0.70;0.70;;;23.90;58.80;;;;;;5113350;28;20032;-36
2023/09/03 12:44:07;;;;;;;0.73;0.73;;;23.90;58.90;;;;;;5113476;28;20094;-34
2023/09/03 12:46:34;;;;;;;0.60;0.60;;;23.90;59.00;;;;;;5112987;28;20016;-33
2023/09/03 12:49:00;;;;;;;0.93;0.88;;;23.90;59.20;;;;;;5113159;28;20353;-35
2023/09/03 12:51:26;;;;;;;1.23;0.80;;;23.90;59.20;;;;;;5112987;28;20027;-35
2023/09/03 12:53:51;;;;;;;1.02;0.93;;;23.80;59.20;;;;;;5112641;28;20091;-34